DLH2471 EDDF-EGLL
Flight info
| Callsign | DLH2471 |
|---|---|
| Flight time | 1h 7m |
| Altitude | 37000 |
| Route | OBOKA5G/25C OBOKA Z29 TORNU DCT ABNED L980 LOGAN LOGAN2H |
| Aircraft | A359/H-SDE2E3GHIJ3J4J5LM1ORWXY/LB1D1 |
Departure
| Time | 2026-05-06 16:24 |
|---|---|
| Airport | Frankfurt Main Airport (EDDF) |
Arrival
| Time | 2026-05-06 17:31 |
|---|---|
| Airport | London Heathrow Airport (EGLL) |
| Time | Latitude | Longitude | Altitude | Speed | Heading |
|---|---|---|---|---|---|
| 2026-05-06 15:55 | 50.04739 | 8.56276 | 352 ft | 0 kts | 340° |
| 2026-05-06 16:08 | 50.04731 | 8.56278 | 359 ft | 0 kts | 343° |
| 2026-05-06 16:10 | 50.04718 | 8.56285 | 355 ft | 2 kts | 341° |
| 2026-05-06 16:10 | 50.04702 | 8.56294 | 352 ft | 2 kts | 338° |
| 2026-05-06 16:10 | 50.04687 | 8.56304 | 362 ft | 2 kts | 333° |
| 2026-05-06 16:11 | 50.04673 | 8.56317 | 360 ft | 2 kts | 325° |
| 2026-05-06 16:11 | 50.04660 | 8.56334 | 362 ft | 2 kts | 308° |
| 2026-05-06 16:11 | 50.04652 | 8.56357 | 360 ft | 2 kts | 277° |
| 2026-05-06 16:11 | 50.04653 | 8.56380 | 362 ft | 1 kts | 253° |
| 2026-05-06 16:12 | 50.04654 | 8.56386 | 362 ft | 0 kts | 251° |
| 2026-05-06 16:14 | 50.04651 | 8.56371 | 358 ft | 3 kts | 251° |
| 2026-05-06 16:15 | 50.04641 | 8.56327 | 361 ft | 6 kts | 250° |
| 2026-05-06 16:15 | 50.04631 | 8.56282 | 362 ft | 7 kts | 250° |
| 2026-05-06 16:15 | 50.04610 | 8.56193 | 359 ft | 10 kts | 249° |
| 2026-05-06 16:15 | 50.04584 | 8.56090 | 360 ft | 10 kts | 249° |
| 2026-05-06 16:16 | 50.04555 | 8.55993 | 362 ft | 9 kts | 231° |
| 2026-05-06 16:16 | 50.04503 | 8.55947 | 359 ft | 10 kts | 201° |
| 2026-05-06 16:16 | 50.04429 | 8.55912 | 359 ft | 12 kts | 189° |
| 2026-05-06 16:16 | 50.04345 | 8.55929 | 359 ft | 13 kts | 166° |
| 2026-05-06 16:17 | 50.04292 | 8.55963 | 359 ft | 0 kts | 153° |
| 2026-05-06 16:17 | 50.04291 | 8.55963 | 359 ft | 0 kts | 153° |
| 2026-05-06 16:18 | 50.04275 | 8.55976 | 362 ft | 7 kts | 152° |
| 2026-05-06 16:18 | 50.04212 | 8.56039 | 358 ft | 15 kts | 148° |
| 2026-05-06 16:18 | 50.04121 | 8.56096 | 360 ft | 13 kts | 154° |
| 2026-05-06 16:18 | 50.04100 | 8.56130 | 360 ft | 1 kts | 107° |
| 2026-05-06 16:19 | 50.04101 | 8.56151 | 362 ft | 6 kts | 87° |
| 2026-05-06 16:19 | 50.04124 | 8.56270 | 359 ft | 16 kts | 71° |
| 2026-05-06 16:19 | 50.04165 | 8.56446 | 356 ft | 19 kts | 69° |
| 2026-05-06 16:19 | 50.04214 | 8.56644 | 358 ft | 20 kts | 70° |
| 2026-05-06 16:20 | 50.04263 | 8.56849 | 357 ft | 21 kts | 69° |
| 2026-05-06 16:20 | 50.04319 | 8.57085 | 359 ft | 24 kts | 70° |
| 2026-05-06 16:20 | 50.04377 | 8.57327 | 362 ft | 24 kts | 70° |
| 2026-05-06 16:20 | 50.04433 | 8.57561 | 359 ft | 23 kts | 69° |
| 2026-05-06 16:21 | 50.04486 | 8.57789 | 360 ft | 22 kts | 70° |
| 2026-05-06 16:21 | 50.04541 | 8.58013 | 356 ft | 22 kts | 69° |
| 2026-05-06 16:21 | 50.04594 | 8.58236 | 359 ft | 22 kts | 70° |
| 2026-05-06 16:21 | 50.04647 | 8.58457 | 360 ft | 22 kts | 70° |
| 2026-05-06 16:22 | 50.04651 | 8.58536 | 357 ft | 1 kts | 116° |
| 2026-05-06 16:22 | 50.04633 | 8.58563 | 360 ft | 5 kts | 146° |
| 2026-05-06 16:22 | 50.04585 | 8.58591 | 360 ft | 11 kts | 160° |
| 2026-05-06 16:22 | 50.04506 | 8.58628 | 358 ft | 6 kts | 178° |
| 2026-05-06 16:23 | 50.04495 | 8.58619 | 360 ft | 0 kts | 218° |
| 2026-05-06 16:23 | 50.04489 | 8.58597 | 362 ft | 3 kts | 250° |
| 2026-05-06 16:23 | 50.04487 | 8.58584 | 362 ft | 0 kts | 253° |
| 2026-05-06 16:23 | 50.04483 | 8.58568 | 357 ft | 13 kts | 253° |
| 2026-05-06 16:24 | 50.04340 | 8.57960 | 360 ft | 111 kts | 249° |
| 2026-05-06 16:24 | 50.03962 | 8.56399 | 623 ft | 180 kts | 251° |
| 2026-05-06 16:24 | 50.03517 | 8.54472 | 1552 ft | 196 kts | 252° |
| 2026-05-06 16:24 | 50.03052 | 8.52428 | 2435 ft | 202 kts | 251° |
| 2026-05-06 16:25 | 50.02755 | 8.50321 | 3409 ft | 201 kts | 266° |
| 2026-05-06 16:25 | 50.02799 | 8.48076 | 4009 ft | 215 kts | 273° |
| 2026-05-06 16:25 | 50.02951 | 8.45703 | 4615 ft | 225 kts | 273° |
| 2026-05-06 16:25 | 50.02895 | 8.43250 | 4947 ft | 234 kts | 260° |
| 2026-05-06 16:26 | 50.02606 | 8.40627 | 5240 ft | 254 kts | 258° |
| 2026-05-06 16:26 | 50.02266 | 8.37881 | 6195 ft | 261 kts | 258° |
| 2026-05-06 16:26 | 50.01925 | 8.35099 | 7296 ft | 263 kts | 258° |
| 2026-05-06 16:26 | 50.01583 | 8.32274 | 8370 ft | 269 kts | 258° |
| 2026-05-06 16:27 | 50.01329 | 8.29382 | 9499 ft | 274 kts | 266° |
| 2026-05-06 16:27 | 50.01633 | 8.26422 | 10420 ft | 286 kts | 287° |
| 2026-05-06 16:27 | 50.02435 | 8.23441 | 10944 ft | 311 kts | 293° |
| 2026-05-06 16:27 | 50.03385 | 8.20323 | 11565 ft | 326 kts | 293° |
| 2026-05-06 16:28 | 50.04359 | 8.17091 | 12430 ft | 333 kts | 293° |
| 2026-05-06 16:28 | 50.05347 | 8.13792 | 13323 ft | 340 kts | 294° |
| 2026-05-06 16:28 | 50.06589 | 8.10626 | 14144 ft | 347 kts | 305° |
| 2026-05-06 16:28 | 50.08095 | 8.07642 | 14960 ft | 354 kts | 307° |
| 2026-05-06 16:29 | 50.09659 | 8.04648 | 15763 ft | 359 kts | 307° |
| 2026-05-06 16:29 | 50.11247 | 8.01598 | 16562 ft | 364 kts | 307° |
| 2026-05-06 16:29 | 50.12847 | 7.98505 | 17371 ft | 369 kts | 307° |
| 2026-05-06 16:29 | 50.14448 | 7.95400 | 18152 ft | 375 kts | 307° |
| 2026-05-06 16:30 | 50.16089 | 7.92206 | 18891 ft | 379 kts | 307° |
| 2026-05-06 16:30 | 50.17208 | 7.90025 | 19455 ft | 382 kts | 307° |
| 2026-05-06 16:30 | 50.19425 | 7.85696 | 20540 ft | 388 kts | 307° |
| 2026-05-06 16:30 | 50.21116 | 7.82388 | 21315 ft | 391 kts | 307° |
| 2026-05-06 16:31 | 50.22823 | 7.79044 | 22076 ft | 395 kts | 307° |
| 2026-05-06 16:31 | 50.24618 | 7.75760 | 22821 ft | 401 kts | 313° |
| 2026-05-06 16:31 | 50.26821 | 7.73038 | 23541 ft | 408 kts | 328° |
| 2026-05-06 16:31 | 50.29373 | 7.71052 | 24140 ft | 413 kts | 335° |
| 2026-05-06 16:32 | 50.32031 | 7.69251 | 24695 ft | 419 kts | 335° |
| 2026-05-06 16:32 | 50.34727 | 7.67437 | 25258 ft | 424 kts | 335° |
| 2026-05-06 16:32 | 50.37450 | 7.65594 | 25859 ft | 428 kts | 335° |
| 2026-05-06 16:32 | 50.40202 | 7.63720 | 26452 ft | 433 kts | 335° |
| 2026-05-06 16:33 | 50.42975 | 7.61818 | 27014 ft | 438 kts | 335° |
| 2026-05-06 16:33 | 50.45778 | 7.59890 | 27599 ft | 442 kts | 335° |
| 2026-05-06 16:33 | 50.48612 | 7.57938 | 28181 ft | 446 kts | 335° |
| 2026-05-06 16:34 | 50.54345 | 7.53967 | 29297 ft | 454 kts | 334° |
| 2026-05-06 16:34 | 50.57131 | 7.51607 | 29848 ft | 457 kts | 326° |
| 2026-05-06 16:34 | 50.59820 | 7.48908 | 30320 ft | 460 kts | 325° |
| 2026-05-06 16:34 | 50.62511 | 7.46143 | 30786 ft | 463 kts | 325° |
| 2026-05-06 16:35 | 50.65222 | 7.43353 | 31235 ft | 467 kts | 325° |
| 2026-05-06 16:35 | 50.67968 | 7.40529 | 31677 ft | 471 kts | 325° |
| 2026-05-06 16:35 | 50.70705 | 7.37665 | 32103 ft | 474 kts | 323° |
| 2026-05-06 16:35 | 50.73243 | 7.34355 | 32525 ft | 475 kts | 313° |
| 2026-05-06 16:36 | 50.75392 | 7.30399 | 32939 ft | 474 kts | 303° |
| 2026-05-06 16:36 | 50.77112 | 7.25951 | 33339 ft | 475 kts | 296° |
| 2026-05-06 16:36 | 50.78677 | 7.21345 | 33703 ft | 478 kts | 294° |
| 2026-05-06 16:36 | 50.80196 | 7.16656 | 34056 ft | 480 kts | 294° |
| 2026-05-06 16:37 | 50.81700 | 7.11927 | 34395 ft | 482 kts | 294° |
| 2026-05-06 16:37 | 50.83202 | 7.07191 | 34863 ft | 481 kts | 294° |
| 2026-05-06 16:37 | 50.84707 | 7.02466 | 35394 ft | 479 kts | 294° |
| 2026-05-06 16:37 | 50.86208 | 6.97778 | 35870 ft | 478 kts | 294° |
| 2026-05-06 16:38 | 50.87714 | 6.93096 | 36289 ft | 477 kts | 294° |
| 2026-05-06 16:38 | 50.89222 | 6.88417 | 36683 ft | 477 kts | 294° |
| 2026-05-06 16:38 | 50.90732 | 6.83714 | 36841 ft | 474 kts | 294° |
| 2026-05-06 16:38 | 50.92202 | 6.79135 | 36853 ft | 459 kts | 294° |
| 2026-05-06 16:39 | 50.93631 | 6.74683 | 36853 ft | 448 kts | 294° |
| 2026-05-06 16:39 | 50.96430 | 6.65903 | 36858 ft | 446 kts | 293° |
| 2026-05-06 16:40 | 50.99224 | 6.57099 | 36857 ft | 446 kts | 293° |
| 2026-05-06 16:40 | 51.02011 | 6.48295 | 36875 ft | 446 kts | 293° |
| 2026-05-06 16:41 | 51.04765 | 6.39572 | 36870 ft | 446 kts | 293° |
| 2026-05-06 16:41 | 51.07567 | 6.30666 | 36876 ft | 446 kts | 293° |
| 2026-05-06 16:42 | 51.10378 | 6.21697 | 36875 ft | 446 kts | 293° |
| 2026-05-06 16:42 | 51.13126 | 6.12857 | 36873 ft | 445 kts | 291° |
| 2026-05-06 16:43 | 51.15076 | 6.03582 | 36875 ft | 440 kts | 282° |
| 2026-05-06 16:43 | 51.16639 | 5.94154 | 36877 ft | 440 kts | 281° |
| 2026-05-06 16:44 | 51.18186 | 5.84661 | 36874 ft | 441 kts | 284° |
| 2026-05-06 16:44 | 51.20393 | 5.75507 | 36882 ft | 443 kts | 289° |
| 2026-05-06 16:45 | 51.22777 | 5.66433 | 36882 ft | 443 kts | 290° |
| 2026-05-06 16:45 | 51.25177 | 5.57385 | 36887 ft | 443 kts | 290° |
| 2026-05-06 16:46 | 51.27547 | 5.48375 | 36882 ft | 442 kts | 289° |
| 2026-05-06 16:46 | 51.29913 | 5.39309 | 36886 ft | 442 kts | 289° |
| 2026-05-06 16:47 | 51.32268 | 5.30238 | 36880 ft | 441 kts | 289° |
| 2026-05-06 16:47 | 51.34616 | 5.21156 | 36884 ft | 441 kts | 289° |
| 2026-05-06 16:48 | 51.36954 | 5.12080 | 36883 ft | 441 kts | 289° |
| 2026-05-06 16:48 | 51.38906 | 5.04475 | 36908 ft | 441 kts | 289° |
| 2026-05-06 16:49 | 51.41228 | 4.95394 | 36904 ft | 440 kts | 289° |
| 2026-05-06 16:49 | 51.43529 | 4.86359 | 36908 ft | 440 kts | 289° |
| 2026-05-06 16:50 | 51.45835 | 4.77268 | 36909 ft | 440 kts | 289° |
| 2026-05-06 16:50 | 51.48130 | 4.68185 | 36908 ft | 440 kts | 289° |
| 2026-05-06 16:51 | 51.50423 | 4.59073 | 36886 ft | 440 kts | 289° |
| 2026-05-06 16:51 | 51.52704 | 4.49971 | 36885 ft | 439 kts | 289° |
| 2026-05-06 16:52 | 51.54981 | 4.40846 | 36882 ft | 439 kts | 289° |
| 2026-05-06 16:52 | 51.57248 | 4.31724 | 36886 ft | 439 kts | 289° |
| 2026-05-06 16:53 | 51.59513 | 4.22576 | 36881 ft | 439 kts | 289° |
| 2026-05-06 16:53 | 51.61764 | 4.13442 | 36887 ft | 439 kts | 289° |
| 2026-05-06 16:54 | 51.64012 | 4.04284 | 36885 ft | 439 kts | 289° |
| 2026-05-06 16:54 | 51.66253 | 3.95117 | 36896 ft | 439 kts | 288° |
| 2026-05-06 16:55 | 51.68486 | 3.85945 | 36898 ft | 439 kts | 288° |
| 2026-05-06 16:55 | 51.70711 | 3.76766 | 36905 ft | 439 kts | 288° |
| 2026-05-06 16:56 | 51.72924 | 3.67591 | 36908 ft | 439 kts | 288° |
| 2026-05-06 16:56 | 51.75131 | 3.58416 | 36914 ft | 438 kts | 288° |
| 2026-05-06 16:57 | 51.77328 | 3.49240 | 36915 ft | 438 kts | 288° |
| 2026-05-06 16:57 | 51.79518 | 3.40052 | 36923 ft | 438 kts | 288° |
| 2026-05-06 16:58 | 51.81694 | 3.30877 | 36924 ft | 437 kts | 288° |
| 2026-05-06 16:58 | 51.83803 | 3.21665 | 36932 ft | 436 kts | 283° |
| 2026-05-06 16:59 | 51.84533 | 3.12071 | 36934 ft | 428 kts | 264° |
| 2026-05-06 16:59 | 51.84060 | 3.02496 | 36936 ft | 427 kts | 261° |
| 2026-05-06 17:00 | 51.83399 | 2.92949 | 36935 ft | 427 kts | 261° |
| 2026-05-06 17:00 | 51.82726 | 2.83396 | 36938 ft | 428 kts | 261° |
| 2026-05-06 17:01 | 51.82071 | 2.73835 | 36934 ft | 428 kts | 261° |
| 2026-05-06 17:01 | 51.81419 | 2.64259 | 36946 ft | 428 kts | 261° |
| 2026-05-06 17:02 | 51.80770 | 2.54738 | 36204 ft | 427 kts | 261° |
| 2026-05-06 17:02 | 51.80433 | 2.49930 | 35269 ft | 435 kts | 261° |
| 2026-05-06 17:02 | 51.80085 | 2.45023 | 34385 ft | 443 kts | 261° |
| 2026-05-06 17:02 | 51.79729 | 2.40026 | 33416 ft | 451 kts | 261° |
| 2026-05-06 17:03 | 51.79370 | 2.34994 | 32724 ft | 450 kts | 261° |
| 2026-05-06 17:03 | 51.79012 | 2.29978 | 32196 ft | 446 kts | 261° |
| 2026-05-06 17:03 | 51.78657 | 2.25030 | 31686 ft | 442 kts | 261° |
| 2026-05-06 17:03 | 51.78308 | 2.20120 | 31187 ft | 438 kts | 261° |
| 2026-05-06 17:04 | 51.78016 | 2.15246 | 30708 ft | 434 kts | 262° |
| 2026-05-06 17:04 | 51.77746 | 2.10416 | 30203 ft | 431 kts | 262° |
| 2026-05-06 17:04 | 51.77471 | 2.05614 | 29665 ft | 427 kts | 262° |
| 2026-05-06 17:04 | 51.77194 | 2.00864 | 29146 ft | 422 kts | 262° |
| 2026-05-06 17:05 | 51.76919 | 1.96226 | 28669 ft | 418 kts | 262° |
| 2026-05-06 17:05 | 51.76637 | 1.91525 | 28180 ft | 413 kts | 262° |
| 2026-05-06 17:05 | 51.76362 | 1.86990 | 27713 ft | 409 kts | 262° |
| 2026-05-06 17:05 | 51.76083 | 1.82435 | 27216 ft | 405 kts | 262° |
| 2026-05-06 17:06 | 51.75803 | 1.77872 | 26736 ft | 402 kts | 262° |
| 2026-05-06 17:06 | 51.75526 | 1.73401 | 26260 ft | 399 kts | 262° |
| 2026-05-06 17:06 | 51.75253 | 1.69022 | 25776 ft | 396 kts | 262° |
| 2026-05-06 17:06 | 51.74977 | 1.64611 | 25306 ft | 393 kts | 263° |
| 2026-05-06 17:07 | 51.74701 | 1.60237 | 24820 ft | 391 kts | 263° |
| 2026-05-06 17:07 | 51.74421 | 1.55865 | 24237 ft | 392 kts | 263° |
| 2026-05-06 17:07 | 51.74141 | 1.51488 | 23648 ft | 393 kts | 263° |
| 2026-05-06 17:07 | 51.73860 | 1.47107 | 22989 ft | 392 kts | 263° |
| 2026-05-06 17:08 | 51.73578 | 1.42739 | 22387 ft | 390 kts | 263° |
| 2026-05-06 17:08 | 51.73292 | 1.38338 | 21789 ft | 388 kts | 263° |
| 2026-05-06 17:08 | 51.73010 | 1.34024 | 21212 ft | 386 kts | 263° |
| 2026-05-06 17:08 | 51.72728 | 1.29721 | 20633 ft | 384 kts | 264° |
| 2026-05-06 17:09 | 51.72445 | 1.25457 | 20065 ft | 382 kts | 264° |
| 2026-05-06 17:09 | 51.72163 | 1.21202 | 19493 ft | 380 kts | 264° |
| 2026-05-06 17:09 | 51.71880 | 1.16971 | 18922 ft | 379 kts | 264° |
| 2026-05-06 17:09 | 51.71596 | 1.12752 | 18364 ft | 378 kts | 264° |
| 2026-05-06 17:10 | 51.71312 | 1.08547 | 17749 ft | 376 kts | 264° |
| 2026-05-06 17:10 | 51.71024 | 1.04311 | 17166 ft | 373 kts | 264° |
| 2026-05-06 17:10 | 51.70742 | 1.00171 | 16611 ft | 370 kts | 264° |
| 2026-05-06 17:10 | 51.70460 | 0.96068 | 16060 ft | 367 kts | 264° |
| 2026-05-06 17:11 | 51.70184 | 0.92005 | 15606 ft | 361 kts | 264° |
| 2026-05-06 17:11 | 51.69912 | 0.88080 | 15348 ft | 341 kts | 264° |
| 2026-05-06 17:11 | 51.69652 | 0.84393 | 15030 ft | 323 kts | 264° |
| 2026-05-06 17:11 | 51.69404 | 0.80865 | 14642 ft | 309 kts | 264° |
| 2026-05-06 17:12 | 51.69163 | 0.77462 | 14214 ft | 304 kts | 264° |
| 2026-05-06 17:12 | 51.68922 | 0.74048 | 13914 ft | 307 kts | 264° |
| 2026-05-06 17:12 | 51.68680 | 0.70632 | 13452 ft | 307 kts | 264° |
| 2026-05-06 17:12 | 51.68439 | 0.67238 | 13085 ft | 303 kts | 264° |
| 2026-05-06 17:13 | 51.68199 | 0.63871 | 12704 ft | 301 kts | 264° |
| 2026-05-06 17:13 | 51.67958 | 0.60527 | 12333 ft | 299 kts | 264° |
| 2026-05-06 17:13 | 51.67718 | 0.57209 | 11966 ft | 297 kts | 264° |
| 2026-05-06 17:13 | 51.67476 | 0.53873 | 11594 ft | 295 kts | 264° |
| 2026-05-06 17:14 | 51.67241 | 0.50632 | 11218 ft | 293 kts | 264° |
| 2026-05-06 17:14 | 51.67001 | 0.47332 | 10800 ft | 293 kts | 264° |
| 2026-05-06 17:14 | 51.66765 | 0.44074 | 10338 ft | 293 kts | 264° |
| 2026-05-06 17:14 | 51.66524 | 0.40809 | 9921 ft | 292 kts | 264° |
| 2026-05-06 17:15 | 51.66280 | 0.37530 | 9480 ft | 290 kts | 264° |
| 2026-05-06 17:15 | 51.66040 | 0.34323 | 9085 ft | 286 kts | 264° |
| 2026-05-06 17:15 | 51.65804 | 0.31165 | 8748 ft | 282 kts | 265° |
| 2026-05-06 17:15 | 51.65566 | 0.27986 | 8392 ft | 281 kts | 265° |
| 2026-05-06 17:16 | 51.65333 | 0.24879 | 8040 ft | 279 kts | 265° |
| 2026-05-06 17:16 | 51.65101 | 0.21782 | 7697 ft | 277 kts | 265° |
| 2026-05-06 17:16 | 51.64872 | 0.18743 | 7498 ft | 269 kts | 265° |
| 2026-05-06 17:16 | 51.64719 | 0.16739 | 7381 ft | 263 kts | 265° |
| 2026-05-06 17:17 | 51.64373 | 0.13894 | 7216 ft | 255 kts | 257° |
| 2026-05-06 17:17 | 51.63888 | 0.11173 | 7020 ft | 249 kts | 255° |
| 2026-05-06 17:17 | 51.63396 | 0.08548 | 6988 ft | 244 kts | 255° |
| 2026-05-06 17:17 | 51.62910 | 0.05937 | 6987 ft | 244 kts | 255° |
| 2026-05-06 17:18 | 51.62423 | 0.03318 | 6990 ft | 244 kts | 255° |
| 2026-05-06 17:18 | 51.61937 | 0.00700 | 6994 ft | 244 kts | 255° |
| 2026-05-06 17:18 | 51.61452 | -0.01919 | 6990 ft | 244 kts | 255° |
| 2026-05-06 17:18 | 51.60967 | -0.04529 | 6988 ft | 244 kts | 255° |
| 2026-05-06 17:19 | 51.60482 | -0.07144 | 6994 ft | 244 kts | 255° |
| 2026-05-06 17:19 | 51.59992 | -0.09785 | 6989 ft | 244 kts | 255° |
| 2026-05-06 17:19 | 51.59505 | -0.12399 | 6990 ft | 244 kts | 255° |
| 2026-05-06 17:19 | 51.59023 | -0.14977 | 7036 ft | 244 kts | 255° |
| 2026-05-06 17:20 | 51.58530 | -0.17621 | 7040 ft | 244 kts | 255° |
| 2026-05-06 17:20 | 51.58042 | -0.20239 | 7038 ft | 244 kts | 255° |
| 2026-05-06 17:20 | 51.57561 | -0.22813 | 6991 ft | 243 kts | 255° |
| 2026-05-06 17:20 | 51.57070 | -0.25431 | 6996 ft | 244 kts | 255° |
| 2026-05-06 17:21 | 51.56593 | -0.27978 | 6993 ft | 244 kts | 255° |
| 2026-05-06 17:21 | 51.56104 | -0.30580 | 6992 ft | 244 kts | 255° |
| 2026-05-06 17:21 | 51.55611 | -0.33196 | 6991 ft | 244 kts | 255° |
| 2026-05-06 17:21 | 51.55118 | -0.35809 | 6993 ft | 244 kts | 255° |
| 2026-05-06 17:22 | 51.54626 | -0.38416 | 6994 ft | 244 kts | 255° |
| 2026-05-06 17:22 | 51.54134 | -0.41022 | 6992 ft | 244 kts | 255° |
| 2026-05-06 17:22 | 51.53641 | -0.43626 | 6993 ft | 244 kts | 255° |
| 2026-05-06 17:22 | 51.53151 | -0.46213 | 6907 ft | 240 kts | 255° |
| 2026-05-06 17:23 | 51.52659 | -0.48795 | 6528 ft | 243 kts | 255° |
| 2026-05-06 17:23 | 51.52164 | -0.51402 | 6210 ft | 244 kts | 255° |
| 2026-05-06 17:23 | 51.51672 | -0.53987 | 6017 ft | 241 kts | 255° |
| 2026-05-06 17:23 | 51.51183 | -0.56553 | 5990 ft | 241 kts | 255° |
| 2026-05-06 17:24 | 51.50693 | -0.59124 | 5993 ft | 241 kts | 255° |
| 2026-05-06 17:24 | 51.50201 | -0.61697 | 5992 ft | 241 kts | 255° |
| 2026-05-06 17:24 | 51.49710 | -0.64268 | 5983 ft | 240 kts | 255° |
| 2026-05-06 17:24 | 51.49216 | -0.66846 | 5658 ft | 240 kts | 255° |
| 2026-05-06 17:25 | 51.48720 | -0.69430 | 5276 ft | 243 kts | 255° |
| 2026-05-06 17:25 | 51.48230 | -0.71986 | 4941 ft | 243 kts | 255° |
| 2026-05-06 17:25 | 51.47719 | -0.74610 | 4597 ft | 243 kts | 253° |
| 2026-05-06 17:25 | 51.46933 | -0.76973 | 4226 ft | 247 kts | 229° |
| 2026-05-06 17:26 | 51.45476 | -0.78357 | 3901 ft | 246 kts | 192° |
| 2026-05-06 17:26 | 51.43809 | -0.78162 | 3617 ft | 241 kts | 156° |
| 2026-05-06 17:26 | 51.42526 | -0.76592 | 3497 ft | 229 kts | 124° |
| 2026-05-06 17:26 | 51.41964 | -0.74324 | 3395 ft | 215 kts | 94° |
| 2026-05-06 17:27 | 51.42153 | -0.72060 | 3319 ft | 199 kts | 65° |
| 2026-05-06 17:27 | 51.42914 | -0.70311 | 3264 ft | 186 kts | 39° |
| 2026-05-06 17:27 | 51.44011 | -0.69316 | 3255 ft | 182 kts | 18° |
| 2026-05-06 17:27 | 51.45245 | -0.68911 | 3029 ft | 182 kts | 8° |
| 2026-05-06 17:28 | 51.46509 | -0.68618 | 2674 ft | 184 kts | 12° |
| 2026-05-06 17:28 | 51.47554 | -0.67507 | 2369 ft | 186 kts | 54° |
| 2026-05-06 17:28 | 51.47865 | -0.65512 | 2124 ft | 187 kts | 86° |
| 2026-05-06 17:28 | 51.47826 | -0.63436 | 1876 ft | 184 kts | 91° |
| 2026-05-06 17:29 | 51.47716 | -0.61476 | 1676 ft | 169 kts | 93° |
| 2026-05-06 17:29 | 51.47644 | -0.59696 | 1498 ft | 152 kts | 88° |
| 2026-05-06 17:29 | 51.47651 | -0.58080 | 1316 ft | 139 kts | 85° |
| 2026-05-06 17:29 | 51.47676 | -0.56565 | 1086 ft | 133 kts | 84° |
| 2026-05-06 17:30 | 51.47699 | -0.55101 | 912 ft | 128 kts | 85° |
| 2026-05-06 17:30 | 51.47708 | -0.53677 | 761 ft | 130 kts | 85° |
| 2026-05-06 17:30 | 51.47719 | -0.52235 | 555 ft | 129 kts | 86° |
| 2026-05-06 17:30 | 51.47724 | -0.50794 | 389 ft | 128 kts | 86° |
| 2026-05-06 17:31 | 51.47735 | -0.49381 | 230 ft | 126 kts | 85° |
| 2026-05-06 17:31 | 51.47748 | -0.47952 | 95 ft | 127 kts | 86° |
| 2026-05-06 17:31 | 51.47755 | -0.46798 | 101 ft | 66 kts | 90° |
| 2026-05-06 17:31 | 51.47757 | -0.46407 | 100 ft | 27 kts | 89° |
| 2026-05-06 17:32 | 51.47702 | -0.46138 | 96 ft | 20 kts | 141° |
| 2026-05-06 17:32 | 51.47600 | -0.46064 | 93 ft | 10 kts | 177° |
| 2026-05-06 17:32 | 51.47546 | -0.46058 | 94 ft | 9 kts | 171° |
| 2026-05-06 17:32 | 51.47526 | -0.46024 | 94 ft | 4 kts | 112° |
| 2026-05-06 17:33 | 51.47517 | -0.45952 | 93 ft | 8 kts | 92° |
| 2026-05-06 17:33 | 51.47518 | -0.45832 | 91 ft | 13 kts | 89° |
| 2026-05-06 17:33 | 51.47509 | -0.45681 | 95 ft | 15 kts | 94° |
| 2026-05-06 17:33 | 51.47506 | -0.45499 | 94 ft | 18 kts | 90° |
| 2026-05-06 17:34 | 51.47505 | -0.45288 | 94 ft | 20 kts | 91° |
| 2026-05-06 17:34 | 51.47506 | -0.45047 | 94 ft | 20 kts | 89° |
| 2026-05-06 17:34 | 51.47507 | -0.44851 | 94 ft | 19 kts | 88° |
| 2026-05-06 17:34 | 51.47507 | -0.44633 | 94 ft | 20 kts | 98° |
| 2026-05-06 17:35 | 51.47504 | -0.44405 | 94 ft | 21 kts | 89° |
| 2026-05-06 17:35 | 51.47506 | -0.44158 | 94 ft | 15 kts | 89° |
| 2026-05-06 17:35 | 51.47483 | -0.44076 | 93 ft | 5 kts | 153° |
| 2026-05-06 17:36 | 51.47368 | -0.44069 | 94 ft | 6 kts | 202° |
| 2026-05-06 17:36 | 51.47346 | -0.44121 | 93 ft | 6 kts | 250° |
| 2026-05-06 17:36 | 51.47342 | -0.44180 | 94 ft | 5 kts | 272° |
| 2026-05-06 17:36 | 51.47342 | -0.44197 | 94 ft | 0 kts | 269° |